sensor_id;sensor_type;location;lat;lon;timestamp;P1;durP1;ratioP1;P2;durP2;ratioP2
22298;SDS011;11317;51.072;17.036;2023-02-18T00:01:14;0.98;;;0.80;;
22298;SDS011;11317;51.072;17.036;2023-02-18T00:03:41;2.13;;;0.95;;
22298;SDS011;11317;51.072;17.036;2023-02-18T00:06:13;1.80;;;0.90;;
22298;SDS011;11317;51.072;17.036;2023-02-18T00:08:44;1.58;;;0.82;;
22298;SDS011;11317;51.072;17.036;2023-02-18T00:11:11;1.00;;;0.65;;
22298;SDS011;11317;51.072;17.036;2023-02-18T00:13:37;3.38;;;0.70;;
22298;SDS011;11317;51.072;17.036;2023-02-18T00:16:04;2.38;;;0.98;;
22298;SDS011;11317;51.072;17.036;2023-02-18T00:18:35;6.95;;;1.00;;
22298;SDS011;11317;51.072;17.036;2023-02-18T00:21:04;2.95;;;0.90;;
22298;SDS011;11317;51.072;17.036;2023-02-18T00:23:31;1.58;;;0.60;;
22298;SDS011;11317;51.072;17.036;2023-02-18T00:25:58;1.65;;;0.70;;
22298;SDS011;11317;51.072;17.036;2023-02-18T00:28:28;1.30;;;0.40;;
22298;SDS011;11317;51.072;17.036;2023-02-18T00:30:54;0.60;;;0.60;;
22298;SDS011;11317;51.072;17.036;2023-02-18T00:33:20;1.35;;;0.77;;
22298;SDS011;11317;51.072;17.036;2023-02-18T00:35:47;1.33;;;0.60;;
22298;SDS011;11317;51.072;17.036;2023-02-18T00:38:12;1.10;;;0.82;;
22298;SDS011;11317;51.072;17.036;2023-02-18T00:40:39;2.53;;;1.00;;
22298;SDS011;11317;51.072;17.036;2023-02-18T00:43:06;3.55;;;0.70;;
22298;SDS011;11317;51.072;17.036;2023-02-18T00:45:32;0.77;;;0.57;;
22298;SDS011;11317;51.072;17.036;2023-02-18T00:47:58;1.42;;;0.50;;
22298;SDS011;11317;51.072;17.036;2023-02-18T00:50:24;1.13;;;0.60;;
22298;SDS011;11317;51.072;17.036;2023-02-18T00:52:50;3.65;;;0.95;;
22298;SDS011;11317;51.072;17.036;2023-02-18T00:55:16;1.95;;;0.55;;
22298;SDS011;11317;51.072;17.036;2023-02-18T00:57:43;0.88;;;0.70;;
22298;SDS011;11317;51.072;17.036;2023-02-18T01:00:09;0.70;;;0.50;;
22298;SDS011;11317;51.072;17.036;2023-02-18T01:02:35;1.15;;;0.52;;
22298;SDS011;11317;51.072;17.036;2023-02-18T01:05:01;0.50;;;0.50;;
22298;SDS011;11317;51.072;17.036;2023-02-18T01:07:27;0.70;;;0.55;;
22298;SDS011;11317;51.072;17.036;2023-02-18T01:09:53;1.50;;;0.60;;
22298;SDS011;11317;51.072;17.036;2023-02-18T01:12:19;0.50;;;0.50;;
22298;SDS011;11317;51.072;17.036;2023-02-18T01:14:45;1.65;;;0.57;;
22298;SDS011;11317;51.072;17.036;2023-02-18T01:17:11;1.25;;;0.50;;
22298;SDS011;11317;51.072;17.036;2023-02-18T01:19:37;2.10;;;0.40;;
22298;SDS011;11317;51.072;17.036;2023-02-18T01:22:03;0.57;;;0.35;;
22298;SDS011;11317;51.072;17.036;2023-02-18T01:24:30;1.20;;;0.60;;
22298;SDS011;11317;51.072;17.036;2023-02-18T01:26:57;2.13;;;0.45;;
22298;SDS011;11317;51.072;17.036;2023-02-18T01:29:23;1.05;;;0.45;;
22298;SDS011;11317;51.072;17.036;2023-02-18T01:31:49;2.90;;;0.50;;
22298;SDS011;11317;51.072;17.036;2023-02-18T01:34:15;0.40;;;0.40;;
22298;SDS011;11317;51.072;17.036;2023-02-18T01:36:41;1.35;;;0.52;;
22298;SDS011;11317;51.072;17.036;2023-02-18T01:39:07;0.57;;;0.52;;
22298;SDS011;11317;51.072;17.036;2023-02-18T01:41:33;1.65;;;0.40;;
22298;SDS011;11317;51.072;17.036;2023-02-18T01:44:09;2.97;;;0.65;;
22298;SDS011;11317;51.072;17.036;2023-02-18T01:46:36;0.43;;;0.43;;
22298;SDS011;11317;51.072;17.036;2023-02-18T01:49:02;0.75;;;0.50;;
22298;SDS011;11317;51.072;17.036;2023-02-18T01:51:29;3.80;;;1.50;;
22298;SDS011;11317;51.072;17.036;2023-02-18T01:59:28;0.47;;;0.47;;
22298;SDS011;11317;51.072;17.036;2023-02-18T02:01:58;6.60;;;0.40;;
22298;SDS011;11317;51.072;17.036;2023-02-18T02:04:24;0.40;;;0.40;;
22298;SDS011;11317;51.072;17.036;2023-02-18T02:06:51;0.52;;;0.52;;
22298;SDS011;11317;51.072;17.036;2023-02-18T02:09:17;1.30;;;0.40;;
22298;SDS011;11317;51.072;17.036;2023-02-18T02:19:42;1.35;;;0.73;;
22298;SDS011;11317;51.072;17.036;2023-02-18T02:22:50;1.23;;;0.60;;
22298;SDS011;11317;51.072;17.036;2023-02-18T02:28:07;3.90;;;0.90;;
22298;SDS011;11317;51.072;17.036;2023-02-18T02:30:59;2.20;;;0.90;;
22298;SDS011;11317;51.072;17.036;2023-02-18T02:45:09;2.13;;;0.82;;
22298;SDS011;11317;51.072;17.036;2023-02-18T02:47:31;0.95;;;0.63;;
22298;SDS011;11317;51.072;17.036;2023-02-18T02:50:09;0.57;;;0.50;;
22298;SDS011;11317;51.072;17.036;2023-02-18T02:52:51;1.50;;;0.55;;
22298;SDS011;11317;51.072;17.036;2023-02-18T02:55:21;2.55;;;0.60;;
22298;SDS011;11317;51.072;17.036;2023-02-18T02:57:52;2.10;;;0.60;;
22298;SDS011;11317;51.072;17.036;2023-02-18T03:00:20;0.68;;;0.47;;
22298;SDS011;11317;51.072;17.036;2023-02-18T03:11:12;2.08;;;0.80;;
22298;SDS011;11317;51.072;17.036;2023-02-18T03:16:45;1.65;;;0.55;;
22298;SDS011;11317;51.072;17.036;2023-02-18T03:21:55;2.05;;;0.85;;
22298;SDS011;11317;51.072;17.036;2023-02-18T03:27:15;0.95;;;0.63;;
22298;SDS011;11317;51.072;17.036;2023-02-18T03:29:42;2.05;;;0.50;;
22298;SDS011;11317;51.072;17.036;2023-02-18T03:32:12;3.05;;;0.75;;
22298;SDS011;11317;51.072;17.036;2023-02-18T03:34:45;1.85;;;0.60;;
22298;SDS011;11317;51.072;17.036;2023-02-18T03:37:16;3.60;;;0.68;;
22298;SDS011;11317;51.072;17.036;2023-02-18T03:39:44;2.03;;;0.98;;
22298;SDS011;11317;51.072;17.036;2023-02-18T03:42:14;1.35;;;0.80;;
22298;SDS011;11317;51.072;17.036;2023-02-18T03:44:41;2.20;;;1.00;;
22298;SDS011;11317;51.072;17.036;2023-02-18T03:47:07;0.47;;;0.47;;
22298;SDS011;11317;51.072;17.036;2023-02-18T03:49:33;4.68;;;0.93;;
22298;SDS011;11317;51.072;17.036;2023-02-18T03:51:59;1.05;;;0.57;;
22298;SDS011;11317;51.072;17.036;2023-02-18T03:54:25;1.60;;;0.57;;
22298;SDS011;11317;51.072;17.036;2023-02-18T03:56:52;0.43;;;0.43;;
22298;SDS011;11317;51.072;17.036;2023-02-18T03:59:18;2.03;;;0.90;;
22298;SDS011;11317;51.072;17.036;2023-02-18T04:01:44;2.65;;;0.80;;
22298;SDS011;11317;51.072;17.036;2023-02-18T04:04:10;0.95;;;0.70;;
22298;SDS011;11317;51.072;17.036;2023-02-18T04:06:36;0.50;;;0.50;;
22298;SDS011;11317;51.072;17.036;2023-02-18T04:09:02;2.47;;;0.70;;
22298;SDS011;11317;51.072;17.036;2023-02-18T04:11:34;3.53;;;0.80;;
22298;SDS011;11317;51.072;17.036;2023-02-18T04:14:03;0.70;;;0.52;;
22298;SDS011;11317;51.072;17.036;2023-02-18T04:16:29;2.47;;;0.60;;
22298;SDS011;11317;51.072;17.036;2023-02-18T04:18:55;0.68;;;0.50;;
22298;SDS011;11317;51.072;17.036;2023-02-18T04:21:21;0.40;;;0.40;;
22298;SDS011;11317;51.072;17.036;2023-02-18T04:23:47;0.40;;;0.40;;
22298;SDS011;11317;51.072;17.036;2023-02-18T04:26:13;1.77;;;0.80;;
22298;SDS011;11317;51.072;17.036;2023-02-18T04:28:39;0.73;;;0.50;;
22298;SDS011;11317;51.072;17.036;2023-02-18T04:31:05;0.40;;;0.40;;
22298;SDS011;11317;51.072;17.036;2023-02-18T04:33:31;0.30;;;0.30;;
22298;SDS011;11317;51.072;17.036;2023-02-18T04:35:57;1.40;;;0.50;;
22298;SDS011;11317;51.072;17.036;2023-02-18T04:38:23;6.03;;;0.73;;
22298;SDS011;11317;51.072;17.036;2023-02-18T04:40:49;2.65;;;0.50;;
22298;SDS011;11317;51.072;17.036;2023-02-18T04:43:15;3.13;;;0.82;;
22298;SDS011;11317;51.072;17.036;2023-02-18T04:45:41;0.35;;;0.35;;
22298;SDS011;11317;51.072;17.036;2023-02-18T04:48:08;2.28;;;0.63;;
22298;SDS011;11317;51.072;17.036;2023-02-18T04:50:34;0.80;;;0.45;;
22298;SDS011;11317;51.072;17.036;2023-02-18T04:53:00;1.02;;;0.60;;
22298;SDS011;11317;51.072;17.036;2023-02-18T04:55:26;3.35;;;0.80;;
22298;SDS011;11317;51.072;17.036;2023-02-18T04:57:52;0.77;;;0.60;;
22298;SDS011;11317;51.072;17.036;2023-02-18T05:00:18;2.45;;;0.65;;
22298;SDS011;11317;51.072;17.036;2023-02-18T05:02:45;0.35;;;0.30;;
22298;SDS011;11317;51.072;17.036;2023-02-18T05:05:11;3.58;;;0.70;;
22298;SDS011;11317;51.072;17.036;2023-02-18T05:07:38;3.60;;;0.50;;
22298;SDS011;11317;51.072;17.036;2023-02-18T05:10:07;0.80;;;0.50;;
22298;SDS011;11317;51.072;17.036;2023-02-18T05:12:35;0.98;;;0.60;;
22298;SDS011;11317;51.072;17.036;2023-02-18T05:15:01;3.60;;;0.77;;
22298;SDS011;11317;51.072;17.036;2023-02-18T05:17:27;0.90;;;0.60;;
22298;SDS011;11317;51.072;17.036;2023-02-18T05:19:53;0.40;;;0.40;;
22298;SDS011;11317;51.072;17.036;2023-02-18T05:22:19;0.68;;;0.55;;
22298;SDS011;11317;51.072;17.036;2023-02-18T05:24:45;3.63;;;0.50;;
22298;SDS011;11317;51.072;17.036;2023-02-18T05:27:11;1.15;;;0.60;;
22298;SDS011;11317;51.072;17.036;2023-02-18T05:29:37;0.68;;;0.50;;
22298;SDS011;11317;51.072;17.036;2023-02-18T05:32:03;0.68;;;0.50;;
22298;SDS011;11317;51.072;17.036;2023-02-18T05:34:29;1.00;;;0.43;;
22298;SDS011;11317;51.072;17.036;2023-02-18T05:36:56;0.50;;;0.50;;
22298;SDS011;11317;51.072;17.036;2023-02-18T05:39:22;1.75;;;0.85;;
22298;SDS011;11317;51.072;17.036;2023-02-18T05:41:48;0.47;;;0.47;;
22298;SDS011;11317;51.072;17.036;2023-02-18T05:44:14;2.53;;;0.80;;
22298;SDS011;11317;51.072;17.036;2023-02-18T05:46:56;0.55;;;0.40;;
22298;SDS011;11317;51.072;17.036;2023-02-18T05:49:23;1.65;;;0.40;;
22298;SDS011;11317;51.072;17.036;2023-02-18T05:51:49;1.65;;;0.60;;
22298;SDS011;11317;51.072;17.036;2023-02-18T05:54:15;2.08;;;0.55;;
22298;SDS011;11317;51.072;17.036;2023-02-18T05:56:41;0.50;;;0.50;;
22298;SDS011;11317;51.072;17.036;2023-02-18T05:59:07;1.50;;;0.73;;
22298;SDS011;11317;51.072;17.036;2023-02-18T06:01:33;1.35;;;0.40;;
22298;SDS011;11317;51.072;17.036;2023-02-18T06:03:59;2.45;;;0.50;;
22298;SDS011;11317;51.072;17.036;2023-02-18T06:06:25;0.47;;;0.47;;
22298;SDS011;11317;51.072;17.036;2023-02-18T06:08:51;2.13;;;0.45;;
22298;SDS011;11317;51.072;17.036;2023-02-18T06:11:17;1.17;;;0.50;;
22298;SDS011;11317;51.072;17.036;2023-02-18T06:13:43;2.40;;;0.70;;
22298;SDS011;11317;51.072;17.036;2023-02-18T06:16:09;1.33;;;0.60;;
22298;SDS011;11317;51.072;17.036;2023-02-18T06:18:36;1.45;;;0.60;;
22298;SDS011;11317;51.072;17.036;2023-02-18T06:21:01;0.30;;;0.30;;
22298;SDS011;11317;51.072;17.036;2023-02-18T06:23:28;0.90;;;0.50;;
22298;SDS011;11317;51.072;17.036;2023-02-18T06:25:54;1.17;;;0.55;;
22298;SDS011;11317;51.072;17.036;2023-02-18T06:28:20;1.38;;;0.60;;
22298;SDS011;11317;51.072;17.036;2023-02-18T06:30:46;0.35;;;0.35;;
22298;SDS011;11317;51.072;17.036;2023-02-18T06:33:12;3.03;;;0.73;;
22298;SDS011;11317;51.072;17.036;2023-02-18T06:35:38;1.23;;;0.52;;
22298;SDS011;11317;51.072;17.036;2023-02-18T06:38:04;2.78;;;0.63;;
22298;SDS011;11317;51.072;17.036;2023-02-18T06:40:31;0.65;;;0.50;;
22298;SDS011;11317;51.072;17.036;2023-02-18T06:42:57;2.67;;;0.50;;
22298;SDS011;11317;51.072;17.036;2023-02-18T06:45:23;0.93;;;0.52;;
22298;SDS011;11317;51.072;17.036;2023-02-18T06:47:49;3.28;;;0.70;;
22298;SDS011;11317;51.072;17.036;2023-02-18T06:50:15;0.50;;;0.50;;
22298;SDS011;11317;51.072;17.036;2023-02-18T06:52:43;3.85;;;0.70;;
22298;SDS011;11317;51.072;17.036;2023-02-18T06:55:11;1.10;;;0.40;;
22298;SDS011;11317;51.072;17.036;2023-02-18T06:57:37;0.60;;;0.43;;
22298;SDS011;11317;51.072;17.036;2023-02-18T07:00:03;0.57;;;0.57;;
22298;SDS011;11317;51.072;17.036;2023-02-18T07:02:30;3.00;;;0.70;;
22298;SDS011;11317;51.072;17.036;2023-02-18T07:04:56;1.27;;;0.50;;
22298;SDS011;11317;51.072;17.036;2023-02-18T07:07:22;1.05;;;0.60;;
22298;SDS011;11317;51.072;17.036;2023-02-18T07:09:48;3.40;;;0.80;;
22298;SDS011;11317;51.072;17.036;2023-02-18T07:12:14;1.42;;;0.50;;
22298;SDS011;11317;51.072;17.036;2023-02-18T07:14:41;0.85;;;0.50;;
22298;SDS011;11317;51.072;17.036;2023-02-18T07:17:07;2.22;;;0.60;;
22298;SDS011;11317;51.072;17.036;2023-02-18T07:19:33;2.70;;;0.50;;
22298;SDS011;11317;51.072;17.036;2023-02-18T07:21:59;2.28;;;0.68;;
22298;SDS011;11317;51.072;17.036;2023-02-18T07:24:25;1.20;;;0.77;;
22298;SDS011;11317;51.072;17.036;2023-02-18T07:26:51;1.63;;;0.70;;
22298;SDS011;11317;51.072;17.036;2023-02-18T07:29:18;1.67;;;0.52;;
22298;SDS011;11317;51.072;17.036;2023-02-18T07:31:44;0.63;;;0.60;;
22298;SDS011;11317;51.072;17.036;2023-02-18T07:34:10;0.50;;;0.50;;
22298;SDS011;11317;51.072;17.036;2023-02-18T07:36:36;1.77;;;0.40;;
22298;SDS011;11317;51.072;17.036;2023-02-18T07:39:02;1.33;;;0.77;;
22298;SDS011;11317;51.072;17.036;2023-02-18T07:41:29;1.98;;;0.75;;
22298;SDS011;11317;51.072;17.036;2023-02-18T07:43:55;0.43;;;0.40;;
22298;SDS011;11317;51.072;17.036;2023-02-18T07:46:21;4.22;;;0.50;;
22298;SDS011;11317;51.072;17.036;2023-02-18T07:48:47;2.15;;;0.57;;
22298;SDS011;11317;51.072;17.036;2023-02-18T07:51:13;2.72;;;0.88;;
22298;SDS011;11317;51.072;17.036;2023-02-18T07:53:39;1.20;;;0.50;;
22298;SDS011;11317;51.072;17.036;2023-02-18T07:56:06;1.98;;;0.52;;
22298;SDS011;11317;51.072;17.036;2023-02-18T07:58:33;0.98;;;0.60;;
22298;SDS011;11317;51.072;17.036;2023-02-18T08:01:10;1.38;;;0.73;;
22298;SDS011;11317;51.072;17.036;2023-02-18T08:03:39;1.58;;;0.70;;
22298;SDS011;11317;51.072;17.036;2023-02-18T08:06:05;2.38;;;0.68;;
22298;SDS011;11317;51.072;17.036;2023-02-18T08:08:31;1.83;;;0.70;;
22298;SDS011;11317;51.072;17.036;2023-02-18T08:10:58;1.27;;;0.75;;
22298;SDS011;11317;51.072;17.036;2023-02-18T08:15:57;1.42;;;0.60;;
22298;SDS011;11317;51.072;17.036;2023-02-18T08:18:24;2.08;;;0.73;;
22298;SDS011;11317;51.072;17.036;2023-02-18T08:20:50;1.55;;;0.70;;
22298;SDS011;11317;51.072;17.036;2023-02-18T08:23:20;2.58;;;0.77;;
22298;SDS011;11317;51.072;17.036;2023-02-18T08:25:49;3.25;;;0.75;;
22298;SDS011;11317;51.072;17.036;2023-02-18T08:28:19;3.00;;;1.00;;
22298;SDS011;11317;51.072;17.036;2023-02-18T08:30:47;1.73;;;0.70;;
22298;SDS011;11317;51.072;17.036;2023-02-18T08:33:15;4.78;;;1.10;;
22298;SDS011;11317;51.072;17.036;2023-02-18T08:35:42;1.65;;;0.75;;
22298;SDS011;11317;51.072;17.036;2023-02-18T08:38:08;4.03;;;0.80;;
22298;SDS011;11317;51.072;17.036;2023-02-18T08:40:34;1.73;;;0.60;;
22298;SDS011;11317;51.072;17.036;2023-02-18T08:43:01;4.80;;;1.08;;
22298;SDS011;11317;51.072;17.036;2023-02-18T08:45:27;2.63;;;0.98;;
22298;SDS011;11317;51.072;17.036;2023-02-18T08:47:53;2.47;;;0.90;;
22298;SDS011;11317;51.072;17.036;2023-02-18T08:50:19;1.45;;;1.00;;
22298;SDS011;11317;51.072;17.036;2023-02-18T08:52:50;3.03;;;0.73;;
22298;SDS011;11317;51.072;17.036;2023-02-18T08:55:21;1.95;;;0.73;;
22298;SDS011;11317;51.072;17.036;2023-02-18T08:57:49;0.60;;;0.60;;
22298;SDS011;11317;51.072;17.036;2023-02-18T09:00:15;2.50;;;0.73;;
22298;SDS011;11317;51.072;17.036;2023-02-18T09:02:42;0.65;;;0.65;;
22298;SDS011;11317;51.072;17.036;2023-02-18T09:05:09;3.92;;;0.68;;
22298;SDS011;11317;51.072;17.036;2023-02-18T09:07:36;1.73;;;1.00;;
22298;SDS011;11317;51.072;17.036;2023-02-18T09:10:03;4.07;;;0.73;;
22298;SDS011;11317;51.072;17.036;2023-02-18T09:12:29;2.85;;;0.70;;
22298;SDS011;11317;51.072;17.036;2023-02-18T09:14:56;0.95;;;0.63;;
22298;SDS011;11317;51.072;17.036;2023-02-18T09:17:23;0.70;;;0.70;;
22298;SDS011;11317;51.072;17.036;2023-02-18T09:19:49;0.90;;;0.47;;
22298;SDS011;11317;51.072;17.036;2023-02-18T09:22:15;4.03;;;1.02;;
22298;SDS011;11317;51.072;17.036;2023-02-18T09:24:41;1.90;;;0.63;;
22298;SDS011;11317;51.072;17.036;2023-02-18T09:27:07;1.15;;;0.45;;
22298;SDS011;11317;51.072;17.036;2023-02-18T09:29:36;0.85;;;0.65;;
22298;SDS011;11317;51.072;17.036;2023-02-18T09:32:04;0.68;;;0.50;;
22298;SDS011;11317;51.072;17.036;2023-02-18T09:34:31;1.33;;;0.63;;
22298;SDS011;11317;51.072;17.036;2023-02-18T09:36:57;1.13;;;0.65;;
22298;SDS011;11317;51.072;17.036;2023-02-18T09:39:24;0.93;;;0.52;;
22298;SDS011;11317;51.072;17.036;2023-02-18T09:41:53;0.52;;;0.50;;
22298;SDS011;11317;51.072;17.036;2023-02-18T09:44:24;1.75;;;0.52;;
22298;SDS011;11317;51.072;17.036;2023-02-18T09:49:37;0.77;;;0.60;;
22298;SDS011;11317;51.072;17.036;2023-02-18T09:54:42;0.98;;;0.47;;
22298;SDS011;11317;51.072;17.036;2023-02-18T09:57:16;1.10;;;0.57;;
22298;SDS011;11317;51.072;17.036;2023-02-18T10:00:06;0.50;;;0.50;;
22298;SDS011;11317;51.072;17.036;2023-02-18T10:02:55;1.70;;;0.60;;
22298;SDS011;11317;51.072;17.036;2023-02-18T10:05:25;0.45;;;0.45;;
22298;SDS011;11317;51.072;17.036;2023-02-18T10:07:54;1.85;;;0.60;;
22298;SDS011;11317;51.072;17.036;2023-02-18T10:10:37;1.92;;;0.60;;
22298;SDS011;11317;51.072;17.036;2023-02-18T10:13:14;1.17;;;0.73;;
22298;SDS011;11317;51.072;17.036;2023-02-18T10:15:42;1.55;;;0.60;;
22298;SDS011;11317;51.072;17.036;2023-02-18T10:18:14;2.53;;;0.77;;
22298;SDS011;11317;51.072;17.036;2023-02-18T10:20:52;0.73;;;0.50;;
22298;SDS011;11317;51.072;17.036;2023-02-18T10:26:28;4.25;;;0.73;;
22298;SDS011;11317;51.072;17.036;2023-02-18T10:28:55;1.38;;;0.70;;
22298;SDS011;11317;51.072;17.036;2023-02-18T10:31:35;3.15;;;0.40;;
22298;SDS011;11317;51.072;17.036;2023-02-18T10:36:57;5.93;;;1.60;;
22298;SDS011;11317;51.072;17.036;2023-02-18T10:45:14;1.48;;;0.98;;
22298;SDS011;11317;51.072;17.036;2023-02-18T10:50:28;2.28;;;0.80;;
22298;SDS011;11317;51.072;17.036;2023-02-18T10:53:02;2.08;;;1.00;;
22298;SDS011;11317;51.072;17.036;2023-02-18T10:55:37;4.38;;;0.98;;
22298;SDS011;11317;51.072;17.036;2023-02-18T11:00:52;0.77;;;0.77;;
22298;SDS011;11317;51.072;17.036;2023-02-18T11:03:22;2.10;;;1.00;;
22298;SDS011;11317;51.072;17.036;2023-02-18T11:06:02;1.42;;;1.02;;
22298;SDS011;11317;51.072;17.036;2023-02-18T11:08:30;2.08;;;1.25;;
22298;SDS011;11317;51.072;17.036;2023-02-18T11:11:10;2.38;;;1.00;;
22298;SDS011;11317;51.072;17.036;2023-02-18T11:13:45;1.73;;;0.90;;
22298;SDS011;11317;51.072;17.036;2023-02-18T11:16:21;3.15;;;0.98;;
22298;SDS011;11317;51.072;17.036;2023-02-18T11:18:48;2.75;;;0.80;;
22298;SDS011;11317;51.072;17.036;2023-02-18T11:23:51;1.27;;;0.80;;
22298;SDS011;11317;51.072;17.036;2023-02-18T11:26:23;4.13;;;1.20;;
22298;SDS011;11317;51.072;17.036;2023-02-18T11:29:02;4.03;;;1.08;;
22298;SDS011;11317;51.072;17.036;2023-02-18T11:31:45;2.60;;;1.20;;
22298;SDS011;11317;51.072;17.036;2023-02-18T11:34:19;2.65;;;0.88;;
22298;SDS011;11317;51.072;17.036;2023-02-18T11:36:48;3.65;;;1.10;;
22298;SDS011;11317;51.072;17.036;2023-02-18T11:41:41;3.08;;;1.48;;
22298;SDS011;11317;51.072;17.036;2023-02-18T11:46:58;9.50;;;3.85;;
22298;SDS011;11317;51.072;17.036;2023-02-18T11:49:28;3.72;;;2.30;;
22298;SDS011;11317;51.072;17.036;2023-02-18T11:51:54;9.48;;;4.20;;
22298;SDS011;11317;51.072;17.036;2023-02-18T11:57:33;14.73;;;3.88;;
22298;SDS011;11317;51.072;17.036;2023-02-18T12:00:02;4.78;;;1.95;;
22298;SDS011;11317;51.072;17.036;2023-02-18T12:02:54;4.35;;;2.28;;
22298;SDS011;11317;51.072;17.036;2023-02-18T12:05:24;6.95;;;2.75;;
22298;SDS011;11317;51.072;17.036;2023-02-18T12:08:06;4.05;;;3.05;;
22298;SDS011;11317;51.072;17.036;2023-02-18T12:10:39;8.52;;;3.10;;
22298;SDS011;11317;51.072;17.036;2023-02-18T12:26:37;11.23;;;4.18;;
22298;SDS011;11317;51.072;17.036;2023-02-18T12:29:21;8.48;;;3.38;;
22298;SDS011;11317;51.072;17.036;2023-02-18T12:32:18;11.27;;;4.00;;
22298;SDS011;11317;51.072;17.036;2023-02-18T12:38:14;7.90;;;3.38;;
22298;SDS011;11317;51.072;17.036;2023-02-18T12:54:04;10.65;;;4.95;;
22298;SDS011;11317;51.072;17.036;2023-02-18T12:56:53;11.10;;;6.28;;
22298;SDS011;11317;51.072;17.036;2023-02-18T13:04:51;8.10;;;3.83;;
22298;SDS011;11317;51.072;17.036;2023-02-18T13:12:54;11.60;;;4.75;;
22298;SDS011;11317;51.072;17.036;2023-02-18T13:15:50;8.75;;;4.20;;
22298;SDS011;11317;51.072;17.036;2023-02-18T13:18:25;10.70;;;3.75;;
22298;SDS011;11317;51.072;17.036;2023-02-18T13:21:03;9.07;;;4.10;;
22298;SDS011;11317;51.072;17.036;2023-02-18T13:23:39;9.77;;;4.03;;
22298;SDS011;11317;51.072;17.036;2023-02-18T13:26:15;10.70;;;3.97;;
22298;SDS011;11317;51.072;17.036;2023-02-18T13:34:22;12.50;;;4.75;;
22298;SDS011;11317;51.072;17.036;2023-02-18T13:39:26;8.52;;;4.07;;
22298;SDS011;11317;51.072;17.036;2023-02-18T13:42:09;12.30;;;5.38;;
22298;SDS011;11317;51.072;17.036;2023-02-18T13:55:34;14.30;;;5.60;;
22298;SDS011;11317;51.072;17.036;2023-02-18T14:06:13;14.23;;;6.55;;
22298;SDS011;11317;51.072;17.036;2023-02-18T14:08:41;12.48;;;6.57;;
22298;SDS011;11317;51.072;17.036;2023-02-18T14:19:36;14.60;;;6.65;;
22298;SDS011;11317;51.072;17.036;2023-02-18T14:24:53;15.80;;;7.10;;
22298;SDS011;11317;51.072;17.036;2023-02-18T14:27:24;15.05;;;8.00;;
22298;SDS011;11317;51.072;17.036;2023-02-18T14:29:51;19.85;;;7.97;;
22298;SDS011;11317;51.072;17.036;2023-02-18T14:32:17;13.48;;;6.82;;
22298;SDS011;11317;51.072;17.036;2023-02-18T14:43:22;17.58;;;8.07;;
22298;SDS011;11317;51.072;17.036;2023-02-18T14:51:43;16.45;;;7.93;;
22298;SDS011;11317;51.072;17.036;2023-02-18T14:54:15;15.52;;;8.80;;
22298;SDS011;11317;51.072;17.036;2023-02-18T14:56:50;17.50;;;9.05;;
22298;SDS011;11317;51.072;17.036;2023-02-18T14:59:19;14.02;;;7.90;;
22298;SDS011;11317;51.072;17.036;2023-02-18T15:01:46;15.73;;;7.85;;
22298;SDS011;11317;51.072;17.036;2023-02-18T15:04:13;15.77;;;7.95;;
22298;SDS011;11317;51.072;17.036;2023-02-18T15:06:40;16.35;;;8.82;;
22298;SDS011;11317;51.072;17.036;2023-02-18T15:09:27;15.07;;;7.65;;
22298;SDS011;11317;51.072;17.036;2023-02-18T15:11:59;15.48;;;7.57;;
22298;SDS011;11317;51.072;17.036;2023-02-18T15:14:37;11.68;;;6.35;;
22298;SDS011;11317;51.072;17.036;2023-02-18T15:17:07;15.25;;;6.20;;
22298;SDS011;11317;51.072;17.036;2023-02-18T15:19:40;10.53;;;3.87;;
22298;SDS011;11317;51.072;17.036;2023-02-18T15:22:18;8.70;;;4.32;;
22298;SDS011;11317;51.072;17.036;2023-02-18T15:24:49;6.70;;;3.38;;
22298;SDS011;11317;51.072;17.036;2023-02-18T15:27:23;4.90;;;2.58;;
22298;SDS011;11317;51.072;17.036;2023-02-18T15:29:58;4.72;;;2.08;;
22298;SDS011;11317;51.072;17.036;2023-02-18T15:33:00;4.50;;;1.85;;
22298;SDS011;11317;51.072;17.036;2023-02-18T15:35:27;2.08;;;1.65;;
22298;SDS011;11317;51.072;17.036;2023-02-18T15:37:57;1.98;;;1.30;;
22298;SDS011;11317;51.072;17.036;2023-02-18T15:40:26;4.15;;;1.65;;
22298;SDS011;11317;51.072;17.036;2023-02-18T15:42:56;2.30;;;1.60;;
22298;SDS011;11317;51.072;17.036;2023-02-18T15:45:29;2.00;;;1.70;;
22298;SDS011;11317;51.072;17.036;2023-02-18T15:47:57;1.58;;;1.45;;
22298;SDS011;11317;51.072;17.036;2023-02-18T15:50:25;1.73;;;1.60;;
22298;SDS011;11317;51.072;17.036;2023-02-18T15:52:54;1.55;;;1.15;;
22298;SDS011;11317;51.072;17.036;2023-02-18T15:57:49;1.23;;;1.00;;
22298;SDS011;11317;51.072;17.036;2023-02-18T16:00:19;0.90;;;0.90;;
22298;SDS011;11317;51.072;17.036;2023-02-18T16:02:54;1.23;;;0.95;;
22298;SDS011;11317;51.072;17.036;2023-02-18T16:05:27;0.85;;;0.70;;
22298;SDS011;11317;51.072;17.036;2023-02-18T16:08:00;1.88;;;0.80;;
22298;SDS011;11317;51.072;17.036;2023-02-18T16:10:55;1.45;;;0.77;;
22298;SDS011;11317;51.072;17.036;2023-02-18T16:13:27;1.88;;;0.60;;
22298;SDS011;11317;51.072;17.036;2023-02-18T16:15:55;2.15;;;0.65;;
22298;SDS011;11317;51.072;17.036;2023-02-18T16:23:53;1.90;;;1.10;;
22298;SDS011;11317;51.072;17.036;2023-02-18T16:26:38;1.23;;;1.13;;
22298;SDS011;11317;51.072;17.036;2023-02-18T16:31:32;1.55;;;0.93;;
22298;SDS011;11317;51.072;17.036;2023-02-18T16:33:58;0.90;;;0.75;;
22298;SDS011;11317;51.072;17.036;2023-02-18T16:36:24;2.00;;;1.20;;
22298;SDS011;11317;51.072;17.036;2023-02-18T16:38:50;1.33;;;1.10;;
22298;SDS011;11317;51.072;17.036;2023-02-18T16:41:16;1.83;;;0.90;;
22298;SDS011;11317;51.072;17.036;2023-02-18T16:43:43;1.48;;;0.85;;
22298;SDS011;11317;51.072;17.036;2023-02-18T16:46:16;1.23;;;0.90;;
22298;SDS011;11317;51.072;17.036;2023-02-18T16:48:44;2.10;;;0.80;;
22298;SDS011;11317;51.072;17.036;2023-02-18T16:51:31;0.88;;;0.88;;
22298;SDS011;11317;51.072;17.036;2023-02-18T16:53:59;1.27;;;1.00;;
22298;SDS011;11317;51.072;17.036;2023-02-18T16:56:26;1.05;;;0.85;;
22298;SDS011;11317;51.072;17.036;2023-02-18T16:58:56;0.88;;;0.80;;
22298;SDS011;11317;51.072;17.036;2023-02-18T17:01:23;1.05;;;0.70;;
22298;SDS011;11317;51.072;17.036;2023-02-18T17:03:53;1.58;;;0.90;;
22298;SDS011;11317;51.072;17.036;2023-02-18T17:06:20;1.05;;;0.88;;
22298;SDS011;11317;51.072;17.036;2023-02-18T17:08:47;0.98;;;0.88;;
22298;SDS011;11317;51.072;17.036;2023-02-18T17:11:17;1.75;;;1.10;;
22298;SDS011;11317;51.072;17.036;2023-02-18T17:13:53;3.10;;;1.65;;
22298;SDS011;11317;51.072;17.036;2023-02-18T17:16:22;1.52;;;1.15;;
22298;SDS011;11317;51.072;17.036;2023-02-18T17:18:48;1.60;;;1.20;;
22298;SDS011;11317;51.072;17.036;2023-02-18T17:21:15;1.67;;;0.90;;
22298;SDS011;11317;51.072;17.036;2023-02-18T17:23:46;1.17;;;0.80;;
22298;SDS011;11317;51.072;17.036;2023-02-18T17:26:14;0.73;;;0.73;;
22298;SDS011;11317;51.072;17.036;2023-02-18T17:28:44;1.10;;;0.80;;
22298;SDS011;11317;51.072;17.036;2023-02-18T17:31:17;1.73;;;0.90;;
22298;SDS011;11317;51.072;17.036;2023-02-18T17:33:57;1.20;;;0.93;;
22298;SDS011;11317;51.072;17.036;2023-02-18T17:36:26;1.83;;;0.98;;
22298;SDS011;11317;51.072;17.036;2023-02-18T17:38:52;1.55;;;0.90;;
22298;SDS011;11317;51.072;17.036;2023-02-18T17:41:18;1.83;;;0.80;;
22298;SDS011;11317;51.072;17.036;2023-02-18T17:43:44;1.42;;;0.55;;
22298;SDS011;11317;51.072;17.036;2023-02-18T17:46:12;1.20;;;0.63;;
22298;SDS011;11317;51.072;17.036;2023-02-18T17:48:40;1.73;;;0.93;;
22298;SDS011;11317;51.072;17.036;2023-02-18T17:51:07;0.80;;;0.80;;